Time;durP1;ratioP1;P1;durP2;ratioP2;P2;SDS_P1;SDS_P2;PMS_P1;PMS_P2;Temp;Humidity;BMP_temperature;BMP_pressure;BME280_temperature;BME280_humidity;BME280_pressure;Samples;Min_cycle;Max_cycle;Signal;HPM_P1;HPM_P2
2023/05/23 00:00:41;;;;;;;12.60;10.80;;;14.90;84.00;;;;;;5035141;28;20486;-72
2023/05/23 00:03:07;;;;;;;14.13;11.20;;;14.90;84.10;;;;;;5035365;28;20022;-72
2023/05/23 00:05:33;;;;;;;12.38;11.10;;;15.00;83.90;;;;;;5035041;28;20470;-72
2023/05/23 00:08:00;;;;;;;10.88;9.73;;;15.00;83.80;;;;;;5035033;28;20088;-72
2023/05/23 00:10:25;;;;;;;13.05;11.40;;;14.90;83.90;;;;;;5033777;28;20038;-72
2023/05/23 00:12:51;;;;;;;12.55;11.23;;;14.90;84.00;;;;;;5034897;28;20028;-72
2023/05/23 00:15:16;;;;;;;13.93;11.32;;;14.90;84.30;;;;;;5033644;28;20057;-72
2023/05/23 00:17:43;;;;;;;12.38;11.02;;;14.80;84.10;;;;;;5034762;28;20436;-72
2023/05/23 00:20:10;;;;;;;13.38;11.43;;;14.80;84.20;;;;;;5034791;28;20550;-72
2023/05/23 00:22:41;;;;;;;12.77;10.90;;;14.80;84.40;;;;;;5034937;28;20029;-72
2023/05/23 00:25:08;;;;;;;13.98;10.45;;;14.80;84.40;;;;;;5035011;28;20029;-71
2023/05/23 00:27:34;;;;;;;12.60;10.18;;;14.80;84.40;;;;;;5034771;28;20029;-72
2023/05/23 00:30:00;;;;;;;12.80;10.38;;;14.80;84.30;;;;;;5034711;28;20045;-72
2023/05/23 00:32:26;;;;;;;11.80;10.50;;;14.80;84.00;;;;;;5034642;28;20025;-72
2023/05/23 00:34:52;;;;;;;14.32;9.90;;;14.80;83.90;;;;;;5034647;28;20049;-72
2023/05/23 00:37:19;;;;;;;12.20;10.38;;;14.80;83.90;;;;;;5034674;28;20025;-72
2023/05/23 00:39:44;;;;;;;11.77;10.30;;;14.80;84.00;;;;;;5034555;28;20025;-72
2023/05/23 00:42:10;;;;;;;15.52;11.43;;;14.80;84.00;;;;;;5034375;28;20021;-71
2023/05/23 00:44:35;;;;;;;13.63;10.90;;;14.80;84.00;;;;;;5034466;28;20029;-72
2023/05/23 00:47:01;;;;;;;13.00;10.70;;;14.80;84.00;;;;;;5034209;28;20045;-72
2023/05/23 00:49:28;;;;;;;15.05;11.02;;;14.80;83.90;;;;;;5034362;28;20075;-72
2023/05/23 00:51:53;;;;;;;13.15;11.30;;;14.80;83.80;;;;;;5034319;28;20025;-72
2023/05/23 00:54:32;;;;;;;18.27;11.63;;;14.70;83.90;;;;;;5034156;28;20030;-73
2023/05/23 00:56:58;;;;;;;13.43;11.52;;;14.70;84.10;;;;;;5034230;28;20033;-72
2023/05/23 00:59:25;;;;;;;16.23;11.57;;;14.70;84.40;;;;;;5034353;28;20370;-72
2023/05/23 01:01:51;;;;;;;14.02;11.52;;;14.70;84.50;;;;;;5033775;28;20425;-72
2023/05/23 01:04:18;;;;;;;13.35;11.65;;;14.70;84.50;;;;;;5034253;28;20096;-71
2023/05/23 01:06:45;;;;;;;15.18;11.80;;;14.70;84.70;;;;;;5034063;28;20108;-72
2023/05/23 01:09:19;;;;;;;12.68;11.38;;;14.70;84.40;;;;;;5032453;28;20025;-72
2023/05/23 01:12:00;;;;;;;14.40;12.82;;;14.70;84.10;;;;;;5033584;28;20034;-71
2023/05/23 01:14:35;;;;;;;12.57;11.18;;;14.70;84.10;;;;;;5034013;28;20076;-71
2023/05/23 01:17:10;;;;;;;14.30;11.13;;;14.70;84.30;;;;;;5033873;28;20029;-71
2023/05/23 01:19:55;;;;;;;17.85;12.02;;;14.60;84.30;;;;;;5033704;28;20025;-72
2023/05/23 01:22:47;;;;;;;12.93;11.17;;;14.70;84.30;;;;;;5033659;28;20371;-73
2023/05/23 01:25:58;;;;;;;13.40;11.85;;;14.70;84.30;;;;;;5033738;28;20076;-72
2023/05/23 01:28:28;;;;;;;11.25;10.15;;;14.80;84.10;;;;;;5033454;28;20021;-72
2023/05/23 01:30:57;;;;;;;14.43;11.27;;;14.80;83.90;;;;;;5033589;28;20513;-73
2023/05/23 01:33:24;;;;;;;11.77;10.57;;;14.80;83.80;;;;;;5033357;28;20075;-72
2023/05/23 01:35:50;;;;;;;14.82;11.30;;;14.80;83.70;;;;;;5033595;28;20033;-73
2023/05/23 01:38:16;;;;;;;12.63;10.48;;;14.80;83.60;;;;;;5033364;28;20029;-72
2023/05/23 01:40:41;;;;;;;12.75;11.00;;;14.80;83.70;;;;;;5033438;28;20026;-73
2023/05/23 01:43:07;;;;;;;13.35;10.73;;;14.80;84.00;;;;;;5033048;28;20374;-72
2023/05/23 01:45:33;;;;;;;14.25;10.85;;;14.90;84.10;;;;;;5033418;28;20489;-72
2023/05/23 01:48:01;;;;;;;12.68;10.88;;;14.90;84.00;;;;;;5031831;28;20472;-72
2023/05/23 01:50:27;;;;;;;13.50;11.38;;;14.90;83.90;;;;;;5033425;28;20073;-72
2023/05/23 01:52:53;;;;;;;12.85;11.27;;;14.90;83.80;;;;;;5033360;28;20030;-73
2023/05/23 01:55:25;;;;;;;13.90;11.13;;;14.90;84.00;;;;;;5033372;28;20359;-72
2023/05/23 01:57:55;;;;;;;12.07;10.73;;;14.90;84.20;;;;;;5033221;28;20100;-72
2023/05/23 02:00:21;;;;;;;12.93;11.63;;;14.90;84.20;;;;;;5033020;28;20036;-72
2023/05/23 02:02:47;;;;;;;14.85;11.43;;;14.90;84.30;;;;;;5033063;28;20025;-73
2023/05/23 02:05:12;;;;;;;12.27;10.57;;;14.90;84.30;;;;;;5033002;28;20117;-72
2023/05/23 02:07:38;;;;;;;13.90;11.85;;;14.90;84.20;;;;;;5032919;28;20026;-72
2023/05/23 02:10:08;;;;;;;14.98;12.25;;;15.00;84.10;;;;;;5033065;28;20444;-73
2023/05/23 02:12:34;;;;;;;16.58;11.55;;;15.00;84.10;;;;;;5032879;28;20026;-72
2023/05/23 02:15:00;;;;;;;13.15;11.40;;;15.00;84.10;;;;;;5032994;28;20026;-72
2023/05/23 02:17:25;;;;;;;18.10;12.45;;;15.00;84.00;;;;;;5031907;28;20034;-72
2023/05/23 02:19:51;;;;;;;16.35;12.55;;;15.10;84.00;;;;;;5033025;28;20429;-72
2023/05/23 02:22:16;;;;;;;13.15;11.77;;;15.10;83.70;;;;;;5032801;28;20490;-72
2023/05/23 02:24:42;;;;;;;12.52;11.20;;;15.00;83.80;;;;;;5032650;28;20036;-72
2023/05/23 02:27:07;;;;;;;13.18;11.57;;;15.00;83.80;;;;;;5032759;28;20029;-72
2023/05/23 02:29:33;;;;;;;12.93;11.63;;;15.00;83.80;;;;;;5032261;28;20029;-72
2023/05/23 02:31:59;;;;;;;14.32;12.27;;;15.10;84.00;;;;;;5032639;28;20036;-72
2023/05/23 02:34:25;;;;;;;12.95;11.50;;;15.10;84.10;;;;;;5032643;28;20053;-72
2023/05/23 02:36:50;;;;;;;13.75;11.15;;;15.10;84.30;;;;;;5032756;28;20026;-72
2023/05/23 02:39:16;;;;;;;13.25;11.85;;;15.20;84.10;;;;;;5034822;28;20100;-72
2023/05/23 02:41:42;;;;;;;13.63;11.57;;;15.20;84.00;;;;;;5036709;28;20043;-72
2023/05/23 02:44:07;;;;;;;12.52;11.23;;;15.20;83.90;;;;;;5036696;28;20057;-72
2023/05/23 02:46:33;;;;;;;12.63;11.32;;;15.30;83.80;;;;;;5036888;28;20407;-72
2023/05/23 02:48:58;;;;;;;15.55;10.90;;;15.30;83.70;;;;;;5036502;28;20053;-72
2023/05/23 02:51:25;;;;;;;15.55;11.32;;;15.30;83.70;;;;;;5036553;28;20045;-72
2023/05/23 02:53:50;;;;;;;12.70;11.18;;;15.30;83.50;;;;;;5036198;28;20032;-72
2023/05/23 02:56:16;;;;;;;13.30;11.40;;;15.30;83.40;;;;;;5036351;28;20025;-72
2023/05/23 02:58:41;;;;;;;16.15;12.05;;;15.30;83.50;;;;;;5036579;28;20032;-73
2023/05/23 03:01:07;;;;;;;14.40;12.10;;;15.30;83.30;;;;;;5036416;28;20032;-72
2023/05/23 03:03:33;;;;;;;13.23;11.30;;;15.30;83.40;;;;;;5036063;28;20026;-72
2023/05/23 03:05:59;;;;;;;15.02;12.18;;;15.30;83.50;;;;;;5036058;28;20359;-72
2023/05/23 03:08:25;;;;;;;17.00;12.13;;;15.30;83.40;;;;;;5034935;28;20025;-73
2023/05/23 03:10:51;;;;;;;15.25;11.98;;;15.30;83.30;;;;;;5036320;28;20040;-72
2023/05/23 03:13:17;;;;;;;12.60;11.32;;;15.30;83.40;;;;;;5036289;28;20390;-72
2023/05/23 03:15:43;;;;;;;11.70;10.60;;;15.20;83.30;;;;;;5036112;28;20029;-72
2023/05/23 03:18:09;;;;;;;15.60;12.65;;;15.20;83.60;;;;;;5036085;28;20033;-72
2023/05/23 03:20:35;;;;;;;14.93;12.25;;;15.20;83.90;;;;;;5035942;28;20018;-72
2023/05/23 03:23:00;;;;;;;15.50;12.40;;;15.20;84.00;;;;;;5035877;28;20017;-72
2023/05/23 03:25:26;;;;;;;14.60;12.43;;;15.20;84.00;;;;;;5039553;28;20080;-72
2023/05/23 03:27:51;;;;;;;14.00;12.18;;;15.20;84.00;;;;;;5037245;28;20029;-72
2023/05/23 03:30:17;;;;;;;14.48;12.13;;;15.20;84.10;;;;;;5036307;28;20103;-72
2023/05/23 03:32:42;;;;;;;14.57;11.63;;;15.20;84.10;;;;;;5035871;28;20108;-72
2023/05/23 03:35:08;;;;;;;14.98;12.55;;;15.30;84.30;;;;;;5035870;28;20083;-72
2023/05/23 03:37:34;;;;;;;13.00;11.60;;;15.30;84.20;;;;;;5035585;28;20050;-72
2023/05/23 03:39:59;;;;;;;15.90;12.05;;;15.40;84.90;;;;;;5035238;28;20030;-72
2023/05/23 03:42:26;;;;;;;12.82;11.52;;;15.50;84.10;;;;;;5035581;28;20076;-72
2023/05/23 03:44:52;;;;;;;14.75;12.52;;;15.50;84.00;;;;;;5035573;28;20389;-72
2023/05/23 03:47:17;;;;;;;18.08;12.10;;;15.50;83.70;;;;;;5034148;28;20041;-72
2023/05/23 03:49:44;;;;;;;12.95;11.65;;;15.50;83.50;;;;;;5035180;28;20029;-72
2023/05/23 03:52:09;;;;;;;16.58;11.63;;;15.50;83.40;;;;;;5035243;28;20447;-73
2023/05/23 03:54:35;;;;;;;12.68;11.35;;;15.50;83.40;;;;;;5035370;28;20083;-72
2023/05/23 03:57:01;;;;;;;14.25;10.95;;;15.50;83.60;;;;;;5035241;28;20421;-72
2023/05/23 03:59:27;;;;;;;13.38;11.88;;;15.50;84.50;;;;;;5035281;28;20378;-72
2023/05/23 04:01:53;;;;;;;16.48;12.38;;;15.50;83.60;;;;;;5035292;28;20028;-72
2023/05/23 04:04:19;;;;;;;13.38;11.63;;;15.50;83.80;;;;;;5035326;28;20470;-73
2023/05/23 04:06:46;;;;;;;16.67;12.43;;;15.50;84.00;;;;;;5035191;28;20048;-72
2023/05/23 04:09:13;;;;;;;13.70;11.30;;;15.50;84.10;;;;;;5035105;28;20021;-72
2023/05/23 04:11:38;;;;;;;14.00;12.50;;;15.50;84.20;;;;;;5034460;28;20065;-72
2023/05/23 04:14:04;;;;;;;13.98;12.48;;;15.50;84.20;;;;;;5034658;28;20064;-72
2023/05/23 04:16:31;;;;;;;14.07;12.45;;;15.60;84.30;;;;;;5034791;28;20036;-72
2023/05/23 04:18:58;;;;;;;15.27;13.68;;;15.60;84.30;;;;;;5034972;28;20370;-72
2023/05/23 04:21:24;;;;;;;15.90;13.35;;;15.60;84.20;;;;;;5034826;28;20027;-72
2023/05/23 04:23:49;;;;;;;16.60;14.30;;;15.60;84.10;;;;;;5034878;28;20529;-72
2023/05/23 04:26:15;;;;;;;19.65;14.23;;;15.60;84.10;;;;;;5034856;28;20516;-72
2023/05/23 04:28:45;;;;;;;14.85;12.60;;;15.60;84.20;;;;;;5034823;28;20140;-72
2023/05/23 04:31:11;;;;;;;16.08;14.00;;;15.60;84.10;;;;;;5034758;28;20033;-72
2023/05/23 04:33:37;;;;;;;15.90;14.20;;;15.70;84.10;;;;;;5034586;28;20025;-72
2023/05/23 04:36:03;;;;;;;14.02;12.63;;;15.70;84.10;;;;;;5034628;28;20638;-72
2023/05/23 04:38:28;;;;;;;14.95;13.40;;;15.70;84.00;;;;;;5034474;28;20025;-72
2023/05/23 04:40:54;;;;;;;16.15;14.27;;;15.80;84.00;;;;;;5034540;28;20378;-72
2023/05/23 04:43:20;;;;;;;18.45;14.02;;;15.80;83.80;;;;;;5034404;28;20022;-72
2023/05/23 04:45:48;;;;;;;16.55;13.35;;;15.80;83.90;;;;;;5034395;28;20021;-72
2023/05/23 04:48:15;;;;;;;15.40;13.80;;;15.70;83.90;;;;;;5034326;28;20042;-72
2023/05/23 04:50:41;;;;;;;14.82;12.95;;;15.80;84.00;;;;;;5034225;28;20116;-72
2023/05/23 04:53:07;;;;;;;14.07;12.57;;;15.80;84.10;;;;;;5034017;28;20060;-72
2023/05/23 04:55:33;;;;;;;13.77;12.20;;;15.80;84.20;;;;;;5034082;28;20044;-72
2023/05/23 04:57:59;;;;;;;14.88;13.25;;;15.80;84.30;;;;;;5034129;28;20035;-72
2023/05/23 05:00:25;;;;;;;14.57;13.02;;;15.80;84.40;;;;;;5032666;28;20052;-72
2023/05/23 05:02:51;;;;;;;14.85;12.55;;;15.90;84.50;;;;;;5033120;28;20021;-72
2023/05/23 05:05:17;;;;;;;14.25;12.40;;;15.90;84.60;;;;;;5033954;28;20021;-72
2023/05/23 05:07:42;;;;;;;14.05;12.60;;;16.00;84.60;;;;;;5033996;28;20151;-72
2023/05/23 05:10:15;;;;;;;16.58;13.07;;;16.00;84.40;;;;;;5033915;28;20061;-72
2023/05/23 05:12:45;;;;;;;15.32;13.73;;;16.10;84.40;;;;;;5032833;28;20026;-72
2023/05/23 05:15:11;;;;;;;14.10;12.65;;;16.10;84.20;;;;;;5033651;28;20017;-71
2023/05/23 05:17:37;;;;;;;16.10;12.98;;;16.20;84.00;;;;;;5033711;28;20071;-72
2023/05/23 05:20:07;;;;;;;16.30;14.52;;;16.30;83.90;;;;;;5033528;28;20112;-73
2023/05/23 05:22:34;;;;;;;15.32;13.55;;;16.40;83.40;;;;;;5033349;28;20014;-72
2023/05/23 05:25:01;;;;;;;17.55;15.13;;;16.50;83.00;;;;;;5032983;28;20052;-73
2023/05/23 05:27:26;;;;;;;15.98;13.88;;;16.60;82.60;;;;;;5033082;28;20017;-72
2023/05/23 05:29:52;;;;;;;18.35;15.27;;;16.70;82.20;;;;;;5031218;28;20028;-72
2023/05/23 05:32:18;;;;;;;17.67;14.63;;;16.80;82.00;;;;;;5032933;28;20036;-72
2023/05/23 05:34:45;;;;;;;18.58;15.63;;;16.90;82.00;;;;;;5032888;28;20021;-73
2023/05/23 05:37:13;;;;;;;18.88;15.65;;;16.90;82.00;;;;;;5032995;28;20017;-72
2023/05/23 05:39:38;;;;;;;20.15;15.73;;;16.90;81.80;;;;;;5033253;28;20013;-71
2023/05/23 05:42:04;;;;;;;22.17;19.13;;;17.00;81.80;;;;;;5033128;28;20025;-72
2023/05/23 05:44:30;;;;;;;21.50;18.10;;;17.00;82.00;;;;;;5033273;28;20025;-72
2023/05/23 05:46:55;;;;;;;25.23;19.85;;;16.90;82.20;;;;;;5031438;28;20029;-72
2023/05/23 05:49:21;;;;;;;23.70;18.23;;;16.80;82.40;;;;;;5032870;28;20176;-71
2023/05/23 05:51:47;;;;;;;29.00;21.00;;;16.80;82.90;;;;;;5032957;28;20418;-72
2023/05/23 05:54:13;;;;;;;23.65;18.85;;;16.70;83.10;;;;;;5033191;28;20045;-72
2023/05/23 05:56:41;;;;;;;21.40;17.42;;;16.60;83.40;;;;;;5032837;28;20104;-71
2023/05/23 05:59:06;;;;;;;30.58;20.00;;;16.60;83.60;;;;;;5033130;28;20021;-72
2023/05/23 06:01:33;;;;;;;20.88;16.42;;;16.60;83.90;;;;;;5033002;28;20092;-71
2023/05/23 06:03:59;;;;;;;26.17;19.20;;;16.50;84.10;;;;;;5032738;28;20025;-72
2023/05/23 06:06:25;;;;;;;53.25;32.05;;;16.50;84.20;;;;;;5032553;28;20407;-72
2023/05/23 06:08:51;;;;;;;60.38;36.15;;;16.40;84.80;;;;;;5032502;28;20124;-72
2023/05/23 06:11:16;;;;;;;53.35;34.95;;;16.40;85.00;;;;;;5032730;28;20091;-72
2023/05/23 06:13:42;;;;;;;56.25;36.40;;;16.40;85.40;;;;;;5032419;28;20025;-73
2023/05/23 06:16:07;;;;;;;54.40;36.47;;;16.30;85.50;;;;;;5032378;28;20421;-73
2023/05/23 06:18:33;;;;;;;60.13;38.15;;;16.30;85.80;;;;;;5032589;28;20029;-72
2023/05/23 06:20:59;;;;;;;60.17;41.88;;;16.30;86.50;;;;;;5032386;28;20032;-73
2023/05/23 06:23:24;;;;;;;64.07;41.35;;;16.30;85.90;;;;;;5032831;28;20021;-72
2023/05/23 06:25:50;;;;;;;66.03;43.33;;;16.30;86.10;;;;;;5033129;28;20068;-72
2023/05/23 06:28:16;;;;;;;71.95;45.97;;;16.30;86.20;;;;;;5032710;28;20049;-72
2023/05/23 06:30:41;;;;;;;61.35;41.63;;;16.30;86.40;;;;;;5032480;28;20484;-71
2023/05/23 06:33:07;;;;;;;74.53;47.97;;;16.30;86.30;;;;;;5032386;28;20022;-72
2023/05/23 06:35:32;;;;;;;73.97;47.05;;;16.30;86.40;;;;;;5032493;28;20091;-71
2023/05/23 06:37:58;;;;;;;64.07;43.13;;;16.20;86.60;;;;;;5032348;28;20030;-72
2023/05/23 06:40:23;;;;;;;60.35;38.72;;;16.30;86.50;;;;;;5032501;28;20048;-72
2023/05/23 06:42:49;;;;;;;60.40;40.25;;;16.40;86.20;;;;;;5032247;28;20029;-72
2023/05/23 06:45:15;;;;;;;69.45;46.05;;;16.60;85.70;;;;;;5032335;28;20026;-72
2023/05/23 06:47:42;;;;;;;61.17;41.50;;;16.60;85.10;;;;;;5032353;28;20115;-71
2023/05/23 06:50:08;;;;;;;59.30;39.25;;;16.70;85.00;;;;;;5031226;28;20025;-72
2023/05/23 06:52:34;;;;;;;61.58;40.17;;;16.80;84.80;;;;;;5032364;28;20117;-71
2023/05/23 06:55:00;;;;;;;69.97;45.80;;;17.00;84.40;;;;;;5032597;28;20053;-71
2023/05/23 06:57:25;;;;;;;61.40;41.60;;;17.00;83.60;;;;;;5032540;28;20057;-72
2023/05/23 06:59:51;;;;;;;59.65;39.15;;;17.10;83.70;;;;;;5031355;28;20052;-71
2023/05/23 07:02:16;;;;;;;60.20;40.13;;;17.10;83.50;;;;;;5032441;28;20037;-72
2023/05/23 07:04:42;;;;;;;57.55;40.40;;;17.20;83.20;;;;;;5032381;28;20029;-72
2023/05/23 07:07:07;;;;;;;91.80;52.70;;;17.20;82.90;;;;;;5032272;28;20021;-72
2023/05/23 07:09:33;;;;;;;81.68;50.95;;;17.10;83.20;;;;;;5031939;28;20105;-72
2023/05/23 07:11:58;;;;;;;87.70;53.78;;;17.00;84.00;;;;;;5032284;28;20040;-72
2023/05/23 07:14:24;;;;;;;82.43;51.92;;;16.90;84.40;;;;;;5032600;28;20060;-73
2023/05/23 07:16:49;;;;;;;86.25;51.72;;;16.90;85.00;;;;;;5032366;28;20065;-72
2023/05/23 07:19:15;;;;;;;61.50;30.90;;;16.80;85.10;;;;;;5032173;28;20125;-72
2023/05/23 07:21:40;;;;;;;54.08;35.35;;;17.00;87.20;;;;;;5032367;28;20540;-72
2023/05/23 07:24:06;;;;;;;64.03;39.67;;;17.20;86.90;;;;;;5033981;28;20025;-72
2023/05/23 07:26:31;;;;;;;60.50;39.47;;;17.50;84.50;;;;;;5036073;28;20036;-72
2023/05/23 07:28:57;;;;;;;61.83;40.85;;;17.70;84.20;;;;;;5035799;28;20025;-71
2023/05/23 07:31:23;;;;;;;80.60;48.67;;;17.80;82.50;;;;;;5035766;28;20466;-72
2023/05/23 07:33:48;;;;;;;69.47;44.05;;;17.80;81.60;;;;;;5035873;28;20060;-72
2023/05/23 07:36:15;;;;;;;78.50;48.22;;;17.90;81.90;;;;;;5036033;28;20021;-72
2023/05/23 07:38:40;;;;;;;69.13;44.95;;;17.90;81.10;;;;;;5035456;28;20474;-72
2023/05/23 07:41:06;;;;;;;77.03;47.13;;;18.00;80.40;;;;;;5035477;28;20040;-72
2023/05/23 07:43:31;;;;;;;64.68;41.47;;;18.10;80.10;;;;;;5034483;28;20104;-71
2023/05/23 07:45:57;;;;;;;68.30;43.83;;;18.10;80.20;;;;;;5035391;28;20529;-70
2023/05/23 07:48:23;;;;;;;66.95;41.38;;;18.20;79.20;;;;;;5035213;28;20076;-69
2023/05/23 07:50:48;;;;;;;68.32;46.35;;;18.30;78.90;;;;;;5035193;28;20215;-69
2023/05/23 07:53:14;;;;;;;70.20;46.42;;;18.30;78.80;;;;;;5035378;28;20100;-69
2023/05/23 07:55:40;;;;;;;76.65;48.30;;;18.30;78.90;;;;;;5035462;28;20053;-68
2023/05/23 07:58:06;;;;;;;81.25;49.47;;;18.30;78.70;;;;;;5035250;28;20076;-70
2023/05/23 08:00:31;;;;;;;72.93;46.83;;;18.30;78.90;;;;;;5035225;28;20076;-70
2023/05/23 08:02:57;;;;;;;61.47;40.33;;;18.20;78.80;;;;;;5033914;28;20026;-70
2023/05/23 08:05:23;;;;;;;76.93;48.55;;;18.20;79.20;;;;;;5035088;28;20093;-70
2023/05/23 08:07:48;;;;;;;68.05;45.03;;;18.20;78.90;;;;;;5034890;28;20025;-70
2023/05/23 08:10:14;;;;;;;68.82;43.97;;;18.20;78.90;;;;;;5035311;28;20065;-70
2023/05/23 08:12:39;;;;;;;69.35;47.08;;;18.20;78.80;;;;;;5034991;28;20414;-69
2023/05/23 08:15:05;;;;;;;60.75;40.90;;;18.30;78.50;;;;;;5034984;28;20026;-69
2023/05/23 08:17:31;;;;;;;61.03;39.92;;;18.30;78.40;;;;;;5034586;28;20458;-69
2023/05/23 08:19:56;;;;;;;57.33;37.88;;;18.40;78.20;;;;;;5034829;28;20029;-70
2023/05/23 08:22:22;;;;;;;56.22;37.70;;;18.40;77.90;;;;;;5034650;28;20450;-70
2023/05/23 08:24:48;;;;;;;60.78;41.47;;;18.50;77.80;;;;;;5034815;28;20422;-70
2023/05/23 08:27:13;;;;;;;52.78;35.42;;;18.50;77.30;;;;;;5034776;28;20034;-70
2023/05/23 08:29:40;;;;;;;68.53;45.95;;;18.50;77.60;;;;;;5034727;28;20067;-69
2023/05/23 08:32:06;;;;;;;57.22;40.95;;;18.50;77.50;;;;;;5034523;28;20045;-69
2023/05/23 08:34:31;;;;;;;62.25;42.70;;;18.50;78.40;;;;;;5034566;28;20030;-70
2023/05/23 08:36:57;;;;;;;63.03;41.88;;;18.50;77.50;;;;;;5032395;28;20022;-71
2023/05/23 08:39:23;;;;;;;61.22;43.83;;;18.60;77.00;;;;;;5032018;28;20022;-72
2023/05/23 08:41:48;;;;;;;61.95;44.20;;;18.40;76.70;;;;;;5033151;28;20025;-72
2023/05/23 08:44:14;;;;;;;62.22;42.13;;;18.10;77.10;;;;;;5033138;28;20048;-72
2023/05/23 08:46:45;;;;;;;58.13;42.28;;;18.10;77.50;;;;;;5033116;28;20018;-72
2023/05/23 08:49:13;;;;;;;55.55;40.83;;;18.00;78.00;;;;;;5030683;28;20048;-73
2023/05/23 08:51:42;;;;;;;57.25;42.47;;;18.00;78.20;;;;;;5032800;28;20393;-72
2023/05/23 08:54:11;;;;;;;55.90;41.80;;;18.00;78.50;;;;;;5030372;28;20028;-73
2023/05/23 08:56:38;;;;;;;58.33;43.33;;;17.80;78.50;;;;;;5032608;28;20029;-73
2023/05/23 08:59:05;;;;;;;65.38;41.58;;;17.70;78.00;;;;;;5031992;28;20013;-72
2023/05/23 09:01:32;;;;;;;51.55;39.20;;;17.60;78.70;;;;;;5031694;28;20057;-73
2023/05/23 09:04:03;;;;;;;53.83;40.60;;;17.60;78.80;;;;;;5033877;28;20024;-72
2023/05/23 09:06:29;;;;;;;57.92;42.90;;;17.60;78.50;;;;;;5033852;28;20030;-72
2023/05/23 09:08:55;;;;;;;52.35;40.95;;;17.60;79.00;;;;;;5033455;28;20032;-72
2023/05/23 09:11:23;;;;;;;43.75;34.00;;;17.60;79.00;;;;;;5031839;28;20113;-72
2023/05/23 09:13:48;;;;;;;53.83;39.92;;;17.70;78.80;;;;;;5032124;28;20020;-72
2023/05/23 09:16:16;;;;;;;37.20;30.95;;;17.90;78.20;;;;;;5032538;28;20390;-72
2023/05/23 09:18:43;;;;;;;53.63;39.47;;;18.10;77.90;;;;;;5030532;28;20029;-72
2023/05/23 09:21:09;;;;;;;46.08;35.15;;;18.20;76.50;;;;;;5033169;28;20064;-72
2023/05/23 09:23:36;;;;;;;46.97;37.22;;;18.40;76.30;;;;;;5032955;28;20029;-72
2023/05/23 09:26:04;;;;;;;42.00;33.33;;;18.60;75.70;;;;;;5033293;28;20021;-71
2023/05/23 09:28:31;;;;;;;51.75;38.70;;;18.70;75.40;;;;;;5033608;28;20029;-71
2023/05/23 09:30:59;;;;;;;50.15;38.63;;;18.70;74.70;;;;;;5032159;28;20048;-72
2023/05/23 09:33:33;;;;;;;38.80;30.25;;;18.70;74.70;;;;;;5033058;28;20041;-72
2023/05/23 09:36:00;;;;;;;41.87;34.13;;;18.80;74.50;;;;;;5033423;28;20033;-73
2023/05/23 09:38:26;;;;;;;56.22;43.53;;;18.90;74.40;;;;;;5032165;28;20286;-73
2023/05/23 09:40:55;;;;;;;52.17;39.25;;;18.80;74.40;;;;;;5032699;28;20092;-71
2023/05/23 09:43:21;;;;;;;49.03;41.53;;;18.50;75.10;;;;;;5032991;28;20531;-73
2023/05/23 09:45:46;;;;;;;54.60;40.88;;;18.40;75.60;;;;;;5032952;28;20056;-72
2023/05/23 09:48:12;;;;;;;46.83;36.63;;;18.30;75.90;;;;;;5032452;28;20056;-72
2023/05/23 09:50:38;;;;;;;49.47;38.85;;;18.30;76.40;;;;;;5032630;28;20026;-72
2023/05/23 09:53:04;;;;;;;47.63;36.95;;;18.40;76.00;;;;;;5032823;28;20029;-72
2023/05/23 09:55:29;;;;;;;50.00;40.15;;;18.60;75.50;;;;;;5032823;28;20033;-74
2023/05/23 09:57:58;;;;;;;46.95;39.17;;;18.90;74.50;;;;;;5032327;28;20473;-72
2023/05/23 10:00:24;;;;;;;51.83;37.65;;;19.10;73.80;;;;;;5032531;28;20431;-72
2023/05/23 10:03:07;;;;;;;44.72;34.13;;;19.20;72.50;;;;;;5032833;28;20017;-72
2023/05/23 10:05:45;;;;;;;46.15;34.35;;;19.30;72.40;;;;;;5032513;28;20025;-72
2023/05/23 10:08:17;;;;;;;44.33;36.00;;;19.40;71.50;;;;;;5032706;28;20021;-72
2023/05/23 10:11:11;;;;;;;38.08;30.75;;;19.40;70.50;;;;;;5032245;28;20025;-71
2023/05/23 10:13:42;;;;;;;42.35;33.38;;;19.50;70.50;;;;;;5014233;28;20486;-74
2023/05/23 10:16:18;;;;;;;40.78;32.90;;;19.70;70.10;;;;;;5032801;28;20038;-71
2023/05/23 10:18:47;;;;;;;45.60;34.15;;;19.90;68.80;;;;;;5032829;28;20028;-73
2023/05/23 10:21:20;;;;;;;33.42;27.08;;;20.00;67.30;;;;;;5032538;28;20026;-73
2023/05/23 10:23:47;;;;;;;35.28;28.30;;;20.10;67.30;;;;;;5031176;28;20127;-74
2023/05/23 10:26:13;;;;;;;37.92;28.17;;;20.20;67.40;;;;;;5032354;28;20022;-74
2023/05/23 10:28:40;;;;;;;35.78;30.75;;;20.30;67.10;;;;;;5032483;28;20415;-73
2023/05/23 10:31:06;;;;;;;41.08;32.70;;;20.20;66.30;;;;;;5032644;28;20033;-74
2023/05/23 10:33:42;;;;;;;37.42;29.52;;;20.20;65.90;;;;;;5032459;28;20033;-73
2023/05/23 10:36:41;;;;;;;35.78;29.25;;;20.00;65.80;;;;;;5032537;28;20017;-73
2023/05/23 10:39:26;;;;;;;33.60;27.83;;;19.80;66.60;;;;;;5032577;28;20458;-73
2023/05/23 10:41:59;;;;;;;34.03;26.02;;;19.50;67.00;;;;;;5032445;28;20079;-73
2023/05/23 10:44:29;;;;;;;36.13;27.25;;;19.50;67.50;;;;;;5032425;28;20076;-73
2023/05/23 10:46:57;;;;;;;29.42;23.02;;;19.60;67.70;;;;;;5032104;28;20025;-73
2023/05/23 10:49:38;;;;;;;35.67;27.65;;;19.60;66.90;;;;;;5030746;28;20094;-72
2023/05/23 10:52:06;;;;;;;34.13;26.95;;;19.30;67.10;;;;;;5030383;28;20478;-73
2023/05/23 10:54:43;;;;;;;33.42;26.95;;;19.10;68.50;;;;;;5031968;28;20022;-73
2023/05/23 10:57:11;;;;;;;28.40;24.38;;;18.90;69.40;;;;;;5031913;28;20025;-73
2023/05/23 10:59:38;;;;;;;24.80;21.88;;;18.90;69.10;;;;;;5032683;28;20020;-73
2023/05/23 11:02:12;;;;;;;32.55;23.10;;;19.10;68.10;;;;;;5036094;28;20014;-73
2023/05/23 11:04:37;;;;;;;27.17;19.73;;;19.20;67.00;;;;;;5035714;28;20505;-73
2023/05/23 11:07:03;;;;;;;27.13;21.73;;;19.50;66.40;;;;;;5035795;28;20052;-73
2023/05/23 11:09:29;;;;;;;26.17;21.60;;;19.60;65.50;;;;;;5035604;28;20030;-73
2023/05/23 11:12:04;;;;;;;25.73;20.77;;;19.80;65.10;;;;;;5035811;28;20132;-74
2023/05/23 11:14:32;;;;;;;25.20;19.77;;;20.00;64.20;;;;;;5035904;28;20029;-74
2023/05/23 11:17:17;;;;;;;24.25;19.15;;;20.20;63.00;;;;;;5035429;28;20268;-73
2023/05/23 11:20:06;;;;;;;19.80;16.33;;;20.10;62.00;;;;;;5035587;28;20039;-73
2023/05/23 11:22:32;;;;;;;19.33;15.35;;;20.20;62.80;;;;;;5036353;28;20064;-73
2023/05/23 11:24:59;;;;;;;19.85;17.83;;;20.30;62.80;;;;;;5034765;28;20116;-74
2023/05/23 11:27:29;;;;;;;23.25;19.30;;;20.20;61.60;;;;;;5035369;28;20438;-73
2023/05/23 11:30:00;;;;;;;23.20;19.13;;;19.90;62.10;;;;;;5035279;28;20385;-73
2023/05/23 11:32:30;;;;;;;26.42;20.85;;;19.90;62.60;;;;;;5035246;28;20036;-72
2023/05/23 11:34:59;;;;;;;23.23;19.30;;;19.80;62.60;;;;;;5035538;28;20030;-74
2023/05/23 11:37:26;;;;;;;21.30;17.15;;;19.90;62.10;;;;;;5035457;28;20017;-73
2023/05/23 11:39:51;;;;;;;24.05;19.77;;;20.10;62.10;;;;;;5034876;28;20076;-72
2023/05/23 11:42:17;;;;;;;22.10;19.40;;;20.30;60.50;;;;;;5035563;28;20450;-72
2023/05/23 11:44:44;;;;;;;25.40;19.73;;;20.10;58.60;;;;;;5035266;28;20394;-72
2023/05/23 11:47:09;;;;;;;28.92;20.10;;;19.80;59.40;;;;;;5035008;28;20072;-72
2023/05/23 11:49:37;;;;;;;27.13;20.17;;;19.80;59.90;;;;;;5035412;28;20034;-73
2023/05/23 11:52:03;;;;;;;23.35;18.95;;;19.60;60.50;;;;;;5035284;28;20041;-72
2023/05/23 11:54:29;;;;;;;26.20;20.73;;;19.70;60.40;;;;;;5035327;28;20044;-73
2023/05/23 11:56:56;;;;;;;24.40;18.63;;;19.70;60.00;;;;;;5035107;28;20025;-74
2023/05/23 11:59:24;;;;;;;24.13;19.23;;;20.00;59.30;;;;;;5035125;28;20100;-72
2023/05/23 12:01:51;;;;;;;21.25;16.90;;;20.20;58.70;;;;;;5035238;28;20022;-73
2023/05/23 12:04:17;;;;;;;22.98;18.45;;;20.40;58.80;;;;;;5035207;28;20409;-73
2023/05/23 12:06:46;;;;;;;21.67;17.40;;;20.20;58.30;;;;;;5035312;28;20104;-74
2023/05/23 12:09:12;;;;;;;16.73;14.38;;;20.20;58.90;;;;;;5038276;28;20092;-74
2023/05/23 12:11:39;;;;;;;19.58;15.85;;;20.30;59.00;;;;;;5034615;28;20048;-73
2023/05/23 12:14:06;;;;;;;17.10;14.65;;;20.50;58.70;;;;;;5035389;28;20024;-73
2023/05/23 12:16:33;;;;;;;18.85;15.75;;;20.60;58.30;;;;;;5035109;28;20025;-73
2023/05/23 12:19:03;;;;;;;18.90;13.70;;;20.80;57.40;;;;;;5035117;28;20034;-73
2023/05/23 12:21:48;;;;;;;16.23;14.15;;;20.70;57.50;;;;;;5034902;28;20021;-73
2023/05/23 12:24:18;;;;;;;18.55;14.40;;;20.80;57.20;;;;;;5034778;28;20053;-74
2023/05/23 12:26:48;;;;;;;18.92;14.85;;;20.80;56.20;;;;;;5034640;28;20057;-74
2023/05/23 12:29:13;;;;;;;18.77;16.73;;;20.70;56.40;;;;;;5034701;28;20405;-74